createdAt,value
2018-06-28T00:00:17.339Z,15.84
2018-06-28T00:01:17.324Z,15.72
2018-06-28T00:02:17.367Z,15.77
2018-06-28T00:03:17.300Z,15.73
2018-06-28T00:04:17.285Z,15.69
2018-06-28T00:05:17.281Z,15.66
2018-06-28T00:06:17.269Z,15.62
2018-06-28T00:07:17.240Z,15.59
2018-06-28T00:08:17.276Z,15.72
2018-06-28T00:09:17.216Z,15.70
2018-06-28T00:10:17.258Z,15.72
2018-06-28T00:11:17.191Z,15.62
2018-06-28T00:12:17.171Z,15.68
2018-06-28T00:13:17.156Z,15.63
2018-06-28T00:14:17.196Z,15.70
2018-06-28T00:15:17.129Z,15.65
2018-06-28T00:16:17.124Z,15.76
2018-06-28T00:17:17.152Z,15.76
2018-06-28T00:18:17.099Z,15.85
2018-06-28T00:19:17.076Z,15.83
2018-06-28T00:20:17.157Z,15.76
2018-06-28T00:22:17.031Z,15.76
2018-06-28T00:23:17.021Z,15.78
2018-06-28T00:24:17.247Z,15.70
2018-06-28T00:25:16.992Z,15.70
2018-06-28T00:26:17.097Z,15.77
2018-06-28T00:27:17.097Z,15.80
2018-06-28T00:28:17.144Z,15.77
2018-06-28T00:29:17.094Z,15.84
2018-06-28T00:30:17.056Z,15.70
2018-06-28T00:32:17.436Z,15.72
2018-06-28T00:33:17.321Z,15.76
2018-06-28T00:34:17.107Z,15.72
2018-06-28T00:35:16.978Z,15.66
2018-06-28T00:36:16.900Z,15.60
2018-06-28T00:37:16.983Z,15.58
2018-06-28T00:38:16.873Z,15.58
2018-06-28T00:39:16.807Z,15.59
2018-06-28T00:40:16.779Z,15.43
2018-06-28T00:41:16.765Z,15.47
2018-06-28T00:42:16.865Z,15.43
2018-06-28T00:43:16.748Z,15.54
2018-06-28T00:44:16.776Z,15.40
2018-06-28T00:45:16.764Z,15.45
2018-06-28T00:46:16.703Z,15.33
2018-06-28T00:47:16.689Z,15.32
2018-06-28T00:48:16.683Z,15.29
2018-06-28T00:49:16.657Z,15.30
2018-06-28T00:50:16.714Z,15.26
2018-06-28T00:51:16.632Z,15.14
2018-06-28T00:52:16.612Z,15.17
2018-06-28T00:53:16.606Z,15.23
2018-06-28T00:54:16.665Z,15.26
2018-06-28T00:55:16.578Z,15.27
2018-06-28T00:56:16.622Z,15.25
2018-06-28T00:57:16.552Z,15.23
2018-06-28T00:58:16.539Z,15.25
2018-06-28T01:00:16.745Z,15.10
2018-06-28T01:01:16.613Z,15.07
2018-06-28T01:02:16.612Z,14.95
2018-06-28T01:03:16.545Z,14.90
2018-06-28T01:04:16.605Z,14.83
2018-06-28T01:05:16.563Z,14.74
2018-06-28T01:06:16.480Z,14.77
2018-06-28T01:07:16.500Z,14.74
2018-06-28T01:08:16.553Z,14.73
2018-06-28T01:09:16.484Z,14.73
2018-06-28T01:10:16.520Z,14.71
2018-06-28T01:11:16.416Z,14.82
2018-06-28T01:12:16.848Z,14.77
2018-06-28T01:13:16.345Z,14.71
2018-06-28T01:14:16.349Z,14.73
2018-06-28T01:16:16.270Z,14.64
2018-06-28T01:17:16.256Z,14.77
2018-06-28T01:18:16.241Z,14.71
2018-06-28T01:19:16.241Z,14.79
2018-06-28T01:20:16.263Z,14.78
2018-06-28T01:21:16.208Z,14.77
2018-06-28T01:22:16.189Z,14.77
2018-06-28T01:23:16.167Z,14.77
2018-06-28T01:24:16.152Z,14.74
2018-06-28T01:25:16.143Z,14.71
2018-06-28T01:26:16.177Z,14.77
2018-06-28T01:28:16.114Z,14.74
2018-06-28T01:29:16.111Z,14.73
2018-06-28T01:30:16.065Z,14.79
2018-06-28T01:32:16.088Z,14.73
2018-06-28T01:33:16.124Z,14.70
2018-06-28T01:34:16.013Z,14.73
2018-06-28T01:35:15.994Z,14.63
2018-06-28T01:36:15.979Z,14.61
2018-06-28T01:37:15.965Z,14.58
2018-06-28T01:38:16.001Z,14.44
2018-06-28T01:40:15.964Z,14.55
2018-06-28T01:41:15.956Z,14.48
2018-06-28T01:42:15.890Z,14.38
2018-06-28T01:43:15.876Z,14.40
2018-06-28T01:44:15.917Z,14.34
2018-06-28T01:45:15.849Z,14.36
2018-06-28T01:46:15.835Z,14.30
2018-06-28T01:47:15.818Z,14.28
2018-06-28T01:48:15.805Z,14.31
2018-06-28T01:49:15.788Z,14.26
2018-06-28T01:50:15.823Z,14.28
2018-06-28T01:51:15.758Z,14.22
2018-06-28T01:52:15.747Z,14.23
2018-06-28T01:53:15.736Z,14.33
2018-06-28T01:54:15.719Z,14.22
2018-06-28T01:55:15.700Z,14.13
2018-06-28T01:56:15.737Z,14.11
2018-06-28T01:57:15.677Z,14.11
2018-06-28T01:58:15.709Z,14.12
2018-06-28T01:59:15.645Z,14.08
2018-06-28T02:00:15.628Z,14.03
2018-06-28T02:01:15.609Z,14.04
2018-06-28T02:02:15.645Z,14.04
2018-06-28T02:03:15.581Z,14.03
2018-06-28T02:04:15.570Z,13.97
2018-06-28T02:05:15.556Z,13.97
2018-06-28T02:06:15.535Z,14.03
2018-06-28T02:07:15.519Z,14.04
2018-06-28T02:08:15.561Z,14.09
2018-06-28T02:09:15.504Z,14.09
2018-06-28T02:10:15.472Z,14.13
2018-06-28T02:11:15.459Z,14.09
2018-06-28T02:12:15.492Z,14.03
2018-06-28T02:13:15.430Z,14.01
2018-06-28T02:14:15.465Z,14.00
2018-06-28T02:15:15.403Z,14.03
2018-06-28T02:16:15.390Z,13.97
2018-06-28T02:17:15.385Z,13.94
2018-06-28T02:19:15.692Z,13.98
2018-06-28T02:20:15.377Z,14.01
2018-06-28T02:21:15.312Z,14.01
2018-06-28T02:22:15.301Z,14.04
2018-06-28T02:23:15.298Z,14.09
2018-06-28T02:25:15.344Z,14.04
2018-06-28T02:26:15.281Z,14.03
2018-06-28T02:28:15.212Z,14.04
2018-06-28T02:29:15.189Z,14.08
2018-06-28T02:30:15.176Z,14.12
2018-06-28T02:31:15.164Z,14.04
2018-06-28T02:32:15.190Z,14.03
2018-06-28T02:34:15.121Z,13.98
2018-06-28T02:35:15.104Z,14.04
2018-06-28T02:36:15.086Z,13.96
2018-06-28T02:37:15.066Z,13.93
2018-06-28T02:38:15.102Z,13.97
2018-06-28T02:39:15.037Z,14.01
2018-06-28T02:40:15.036Z,14.03
2018-06-28T02:41:15.009Z,14.08
2018-06-28T02:42:15.006Z,14.03
2018-06-28T02:43:14.981Z,13.90
2018-06-28T02:44:15.020Z,13.98
2018-06-28T02:45:14.963Z,13.96
2018-06-28T02:47:15.021Z,13.82
2018-06-28T02:48:15.047Z,13.76
2018-06-28T02:49:15.096Z,13.83
2018-06-28T02:51:14.926Z,13.65
2018-06-28T02:52:14.880Z,13.60
2018-06-28T02:53:14.826Z,13.54
2018-06-28T02:54:14.817Z,13.51
2018-06-28T02:55:14.791Z,13.51
2018-06-28T02:56:14.784Z,13.46
2018-06-28T02:57:14.816Z,13.49
2018-06-28T02:58:14.845Z,13.43
2018-06-28T02:59:14.826Z,13.47
2018-06-28T03:00:18.594Z,13.42
2018-06-28T03:01:14.699Z,13.42
2018-06-28T03:02:14.692Z,13.42
2018-06-28T03:03:14.759Z,13.51
2018-06-28T03:04:14.776Z,13.43
2018-06-28T03:05:14.652Z,13.42
2018-06-28T03:06:14.626Z,13.43
2018-06-28T03:07:14.606Z,13.46
2018-06-28T03:08:14.603Z,13.46
2018-06-28T03:09:14.629Z,13.53
2018-06-28T03:10:14.559Z,13.46
2018-06-28T03:11:14.558Z,13.45
2018-06-28T03:12:15.174Z,13.57
2018-06-28T03:13:14.515Z,13.53
2018-06-28T03:14:14.499Z,13.45
2018-06-28T03:15:14.552Z,13.55
2018-06-28T03:16:14.472Z,13.53
2018-06-28T03:18:14.438Z,13.45
2018-06-28T03:19:14.459Z,13.45
2018-06-28T03:20:14.405Z,13.49
2018-06-28T03:22:14.378Z,13.49
2018-06-28T03:23:14.360Z,13.53
2018-06-28T03:24:14.354Z,13.45
2018-06-28T03:25:14.766Z,13.46
2018-06-28T03:26:14.318Z,13.49
2018-06-28T03:27:14.546Z,13.49
2018-06-28T03:28:14.283Z,13.39
2018-06-28T03:29:14.266Z,13.49
2018-06-28T03:30:14.265Z,13.54
2018-06-28T03:31:14.237Z,13.57
2018-06-28T03:32:14.218Z,13.55
2018-06-28T03:34:14.240Z,13.64
2018-06-28T03:35:14.179Z,13.64
2018-06-28T03:36:14.172Z,13.64
2018-06-28T03:37:14.148Z,13.61
2018-06-28T03:38:14.132Z,13.61
2018-06-28T03:39:14.175Z,13.63
2018-06-28T03:40:14.147Z,13.63
2018-06-28T03:41:14.087Z,13.57
2018-06-28T03:42:14.066Z,13.51
2018-06-28T03:43:14.075Z,13.55
2018-06-28T03:44:14.039Z,13.60
2018-06-28T03:45:14.021Z,13.55
2018-06-28T03:46:14.100Z,13.53
2018-06-28T03:47:14.001Z,13.51
2018-06-28T03:48:13.975Z,13.51
2018-06-28T03:49:13.996Z,13.39
2018-06-28T03:50:13.943Z,13.45
2018-06-28T03:51:13.934Z,13.45
2018-06-28T03:52:13.959Z,13.42
2018-06-28T03:53:13.893Z,13.39
2018-06-28T03:54:13.877Z,13.36
2018-06-28T03:55:13.874Z,13.45
2018-06-28T03:56:13.851Z,13.43
2018-06-28T03:57:13.832Z,13.36
2018-06-28T03:58:13.868Z,13.47
2018-06-28T03:59:13.835Z,13.49
2018-06-28T04:00:13.787Z,13.45
2018-06-28T04:01:13.774Z,13.47
2018-06-28T04:02:13.762Z,13.39
2018-06-28T04:03:13.740Z,13.63
2018-06-28T04:04:13.778Z,13.57
2018-06-28T04:06:13.797Z,13.54
2018-06-28T04:07:13.688Z,13.61
2018-06-28T04:08:13.664Z,13.54
2018-06-28T04:09:13.651Z,13.55
2018-06-28T04:10:13.690Z,13.61
2018-06-28T04:11:13.664Z,13.65
2018-06-28T04:12:13.612Z,13.71
2018-06-28T04:13:13.582Z,13.73
2018-06-28T04:14:13.571Z,13.80
2018-06-28T04:15:13.566Z,13.88
2018-06-28T04:16:13.592Z,13.96
2018-06-28T04:17:13.519Z,13.94
2018-06-28T04:18:13.505Z,14.04
2018-06-28T04:20:13.475Z,14.09
2018-06-28T04:21:13.475Z,14.09
2018-06-28T04:22:13.493Z,14.26
2018-06-28T04:23:13.479Z,14.27
2018-06-28T04:24:13.443Z,14.30
2018-06-28T04:25:13.410Z,14.28
2018-06-28T04:26:13.386Z,14.36
2018-06-28T04:27:13.367Z,14.41
2018-06-28T04:28:13.454Z,14.41
2018-06-28T04:29:13.389Z,14.51
2018-06-28T04:30:13.385Z,14.49
2018-06-28T04:31:13.307Z,14.58
2018-06-28T04:32:13.294Z,14.55
2018-06-28T04:33:13.342Z,14.55
2018-06-28T04:34:13.311Z,14.63
2018-06-28T04:35:13.259Z,14.66
2018-06-28T04:36:13.233Z,14.77
2018-06-28T04:37:13.218Z,14.86
2018-06-28T04:38:13.204Z,14.96
2018-06-28T04:39:13.189Z,15.03
2018-06-28T04:40:13.220Z,15.07
2018-06-28T04:41:13.158Z,15.08
2018-06-28T04:42:13.194Z,15.19
2018-06-28T04:43:13.130Z,15.27
2018-06-28T04:44:13.112Z,15.17
2018-06-28T04:45:13.098Z,15.22
2018-06-28T04:46:13.137Z,15.32
2018-06-28T04:47:13.071Z,15.27
2018-06-28T04:48:13.070Z,15.33
2018-06-28T04:49:13.039Z,15.35
2018-06-28T04:50:13.024Z,15.45
2018-06-28T04:51:13.023Z,15.47
2018-06-28T04:52:13.047Z,15.43
2018-06-28T04:53:13.029Z,15.59
2018-06-28T04:54:12.983Z,15.48
2018-06-28T04:55:12.948Z,15.60
2018-06-28T04:56:12.943Z,15.62
2018-06-28T04:57:12.937Z,15.58
2018-06-28T04:58:12.967Z,15.69
2018-06-28T04:59:12.902Z,15.62
2018-06-28T05:00:12.883Z,15.66
2018-06-28T05:01:13.571Z,15.73
2018-06-28T05:02:12.864Z,15.73
2018-06-28T05:03:12.840Z,15.68
2018-06-28T05:04:12.882Z,15.78
2018-06-28T05:05:12.811Z,15.80
2018-06-28T05:06:12.803Z,15.84
2018-06-28T05:07:12.777Z,15.88
2018-06-28T05:08:12.776Z,15.93
2018-06-28T05:09:12.759Z,15.88
2018-06-28T05:10:12.788Z,16.02
2018-06-28T05:11:13.085Z,15.96
2018-06-28T05:12:12.740Z,16.03
2018-06-28T05:13:12.697Z,16.05
2018-06-28T05:14:12.700Z,16.21
2018-06-28T05:15:12.669Z,16.18
2018-06-28T05:16:12.706Z,16.16
2018-06-28T05:17:12.663Z,16.29
2018-06-28T05:18:12.634Z,16.39
2018-06-28T05:19:12.631Z,16.36
2018-06-28T05:20:12.603Z,16.42
2018-06-28T05:21:12.584Z,16.44
2018-06-28T05:22:12.623Z,16.44
2018-06-28T05:23:12.569Z,16.55
2018-06-28T05:24:12.542Z,16.54
2018-06-28T05:25:12.533Z,16.54
2018-06-28T05:26:12.513Z,16.51
2018-06-28T05:27:12.508Z,16.62
2018-06-28T05:28:12.566Z,16.59
2018-06-28T05:29:14.356Z,16.67
2018-06-28T05:30:12.467Z,16.74
2018-06-28T05:31:12.505Z,16.77
2018-06-28T05:32:12.430Z,16.80
2018-06-28T05:33:12.438Z,16.77
2018-06-28T05:34:12.469Z,16.84
2018-06-28T05:35:12.388Z,16.90
2018-06-28T05:36:12.378Z,16.91
2018-06-28T05:37:12.378Z,16.98
2018-06-28T05:38:12.355Z,17.06
2018-06-28T05:39:12.346Z,17.12
2018-06-28T05:40:12.400Z,17.07
2018-06-28T05:41:12.346Z,17.14
2018-06-28T05:42:12.317Z,17.27
2018-06-28T05:43:12.286Z,17.25
2018-06-28T05:44:12.287Z,17.27
2018-06-28T05:45:12.304Z,17.25
2018-06-28T05:46:12.329Z,17.25
2018-06-28T05:47:12.368Z,17.22
2018-06-28T05:48:12.223Z,17.41
2018-06-28T05:49:12.509Z,17.35
2018-06-28T05:50:12.199Z,17.38
2018-06-28T05:51:12.236Z,17.41
2018-06-28T05:52:12.255Z,17.43
2018-06-28T05:53:12.171Z,17.46
2018-06-28T05:54:12.245Z,17.43
2018-06-28T05:55:12.553Z,17.45
2018-06-28T05:56:12.117Z,17.46
2018-06-28T05:57:12.106Z,17.45
2018-06-28T05:58:12.140Z,17.47
2018-06-28T05:59:12.148Z,17.52
2018-06-28T06:00:12.060Z,17.57
2018-06-28T06:01:12.350Z,17.63
2018-06-28T06:02:12.128Z,17.65
2018-06-28T06:03:12.223Z,17.72
2018-06-28T06:04:12.123Z,17.73
2018-06-28T06:06:11.989Z,17.79
2018-06-28T06:07:12.493Z,17.83
2018-06-28T06:08:11.968Z,17.88
2018-06-28T06:09:12.008Z,17.94
2018-06-28T06:10:11.940Z,18.03
2018-06-28T06:11:11.921Z,18.13
2018-06-28T06:12:11.908Z,18.05
2018-06-28T06:13:11.894Z,18.17
2018-06-28T06:14:11.882Z,18.06
2018-06-28T06:15:12.168Z,18.09
2018-06-28T06:16:11.969Z,18.15
2018-06-28T06:17:11.852Z,18.26
2018-06-28T06:18:12.133Z,18.20
2018-06-28T06:19:11.823Z,18.21
2018-06-28T06:20:11.838Z,18.34
2018-06-28T06:21:12.150Z,18.45
2018-06-28T06:22:11.785Z,18.41
2018-06-28T06:23:11.775Z,18.49
2018-06-28T06:24:12.066Z,18.58
2018-06-28T06:25:11.864Z,18.68
2018-06-28T06:27:11.775Z,18.74
2018-06-28T06:28:11.713Z,18.88
2018-06-28T06:29:11.693Z,18.75
2018-06-28T06:30:11.768Z,18.88
2018-06-28T06:31:11.704Z,18.83
2018-06-28T06:32:11.659Z,18.89
2018-06-28T06:33:11.701Z,18.93
2018-06-28T06:34:11.668Z,18.97
2018-06-28T06:36:11.916Z,19.07
2018-06-28T06:37:11.611Z,19.12
2018-06-28T06:38:11.742Z,19.07
2018-06-28T06:39:11.653Z,19.05
2018-06-28T06:40:11.633Z,19.13
2018-06-28T06:41:11.678Z,19.16
2018-06-28T06:42:11.665Z,19.23
2018-06-28T06:43:11.538Z,19.24
2018-06-28T06:44:11.611Z,19.27
2018-06-28T06:45:11.604Z,19.24
2018-06-28T06:46:11.583Z,19.32
2018-06-28T06:48:11.929Z,19.32
2018-06-28T06:49:11.487Z,19.32
2018-06-28T06:50:11.538Z,19.31
2018-06-28T06:51:11.547Z,19.41
2018-06-28T06:52:11.588Z,19.45
2018-06-28T06:53:11.520Z,19.53
2018-06-28T06:54:11.786Z,19.59
2018-06-28T06:56:11.441Z,19.77
2018-06-28T06:57:11.500Z,19.75
2018-06-28T06:58:11.441Z,19.90
2018-06-28T06:59:11.500Z,19.96
2018-06-28T07:00:11.789Z,20.04
2018-06-28T07:01:11.427Z,20.02
2018-06-28T07:02:11.923Z,20.05
2018-06-28T07:03:11.453Z,20.05
2018-06-28T07:04:11.406Z,20.07
2018-06-28T07:05:11.386Z,20.07
2018-06-28T07:06:11.663Z,20.17
2018-06-28T07:07:11.489Z,20.15
2018-06-28T07:08:11.796Z,20.19
2018-06-28T07:09:11.402Z,20.27
2018-06-28T07:10:11.407Z,20.37
2018-06-28T07:11:11.358Z,20.37
2018-06-28T07:12:11.684Z,20.48
2018-06-28T07:13:11.399Z,20.55
2018-06-28T07:14:11.364Z,20.50
2018-06-28T07:15:11.325Z,20.65
2018-06-28T07:16:11.312Z,20.68
2018-06-28T07:17:11.230Z,20.68
2018-06-28T07:18:11.957Z,20.74
2018-06-28T07:19:11.246Z,20.88
2018-06-28T07:20:11.251Z,20.89
2018-06-28T07:21:11.678Z,21.01
2018-06-28T07:22:11.200Z,21.07
2018-06-28T07:23:11.228Z,21.14
2018-06-28T07:24:11.565Z,21.22
2018-06-28T07:25:11.207Z,21.26
2018-06-28T07:26:11.197Z,21.37
2018-06-28T07:27:11.177Z,21.51
2018-06-28T07:28:11.555Z,21.59
2018-06-28T07:29:11.124Z,21.78
2018-06-28T07:30:11.548Z,21.88
2018-06-28T07:31:11.154Z,22.04
2018-06-28T07:32:11.088Z,22.15
2018-06-28T07:34:11.093Z,22.31
2018-06-28T07:35:11.049Z,22.53
2018-06-28T07:36:11.801Z,22.74
2018-06-28T07:37:11.136Z,22.77
2018-06-28T07:38:11.054Z,22.92
2018-06-28T07:39:10.990Z,23.18
2018-06-28T07:40:11.085Z,23.29
2018-06-28T07:41:11.425Z,23.59
2018-06-28T07:42:11.224Z,23.63
2018-06-28T07:43:10.877Z,23.89
2018-06-28T07:44:11.025Z,24.00
2018-06-28T07:45:10.918Z,24.16
2018-06-28T07:46:10.932Z,24.15
2018-06-28T07:47:10.959Z,24.44
2018-06-28T07:48:11.259Z,24.63
2018-06-28T07:49:10.932Z,24.78
2018-06-28T07:50:10.906Z,24.70
2018-06-28T07:51:10.876Z,24.82
2018-06-28T07:52:10.972Z,24.96
2018-06-28T07:53:11.286Z,24.89
2018-06-28T07:54:10.925Z,25.12
2018-06-28T07:55:10.910Z,25.14
2018-06-28T07:56:10.741Z,25.15
2018-06-28T07:57:10.962Z,25.09
2018-06-28T07:58:10.793Z,25.14
2018-06-28T07:59:11.016Z,25.19
2018-06-28T08:00:10.765Z,25.23
2018-06-28T08:01:10.716Z,25.43
2018-06-28T08:02:10.696Z,25.43
2018-06-28T08:03:10.698Z,25.63
2018-06-28T08:04:10.736Z,25.85
2018-06-28T08:05:10.984Z,25.86
2018-06-28T08:06:10.668Z,25.95
2018-06-28T08:07:10.663Z,25.88
2018-06-28T08:08:10.653Z,26.12
2018-06-28T08:09:10.737Z,26.33
2018-06-28T08:10:13.914Z,26.51
2018-06-28T08:11:10.629Z,26.76
2018-06-28T08:12:10.639Z,26.89
2018-06-28T08:13:16.292Z,26.94
2018-06-28T08:14:10.615Z,26.75
2018-06-28T08:15:10.606Z,26.97
2018-06-28T08:16:10.953Z,26.73
2018-06-28T08:17:10.608Z,26.94
2018-06-28T08:18:10.596Z,26.98
2018-06-28T08:19:10.600Z,27.01
2018-06-28T08:20:10.580Z,27.12
2018-06-28T08:21:10.575Z,27.08
2018-06-28T08:22:10.935Z,27.12
2018-06-28T08:23:10.569Z,27.12
2018-06-28T08:24:10.567Z,27.12
2018-06-28T08:25:10.546Z,27.15
2018-06-28T08:26:10.543Z,27.22
2018-06-28T08:27:10.541Z,27.54
2018-06-28T08:28:10.845Z,27.72
2018-06-28T08:29:10.603Z,27.73
2018-06-28T08:30:10.528Z,27.69
2018-06-28T08:31:10.514Z,27.66
2018-06-28T08:32:10.520Z,28.01
2018-06-28T08:34:10.819Z,28.31
2018-06-28T08:35:10.496Z,28.40
2018-06-28T08:36:10.545Z,28.25
2018-06-28T08:37:10.494Z,28.17
2018-06-28T08:39:10.496Z,28.32
2018-06-28T08:40:10.819Z,28.16
2018-06-28T08:41:10.471Z,28.13
2018-06-28T08:42:10.463Z,28.01
2018-06-28T08:43:10.498Z,27.97
2018-06-28T08:44:10.459Z,28.13
2018-06-28T08:45:10.452Z,28.35
2018-06-28T08:46:10.516Z,28.57
2018-06-28T08:47:10.750Z,28.64
2018-06-28T08:48:10.443Z,28.61
2018-06-28T08:49:11.040Z,28.54
2018-06-28T08:50:10.453Z,28.43
2018-06-28T08:52:10.530Z,28.37
2018-06-28T08:53:10.753Z,28.62
2018-06-28T08:54:10.427Z,28.86
2018-06-28T08:55:10.597Z,28.89
2018-06-28T08:56:10.832Z,29.18
2018-06-28T08:57:10.433Z,29.24
2018-06-28T08:59:10.911Z,29.74
2018-06-28T09:00:10.431Z,29.68
2018-06-28T09:01:10.491Z,29.50
2018-06-28T09:02:10.467Z,29.56
2018-06-28T09:03:10.570Z,29.58
2018-06-28T09:04:10.415Z,29.59
2018-06-28T09:05:10.771Z,29.65
2018-06-28T09:06:10.393Z,29.34
2018-06-28T09:07:10.436Z,28.93
2018-06-28T09:08:10.400Z,28.81
2018-06-28T09:09:10.425Z,28.96
2018-06-28T09:10:10.407Z,28.89
2018-06-28T09:11:10.732Z,28.96
2018-06-28T09:12:10.401Z,28.90
2018-06-28T09:14:10.440Z,28.87
2018-06-28T09:15:10.381Z,29.13
2018-06-28T09:16:10.379Z,29.04
2018-06-28T09:17:10.460Z,29.00
2018-06-28T09:18:10.668Z,29.09
2018-06-28T09:19:10.421Z,29.44
2018-06-28T09:20:10.376Z,29.68
2018-06-28T09:21:10.366Z,29.68
2018-06-28T09:22:10.540Z,29.76
2018-06-28T09:23:10.604Z,30.00
2018-06-28T09:24:10.668Z,29.49
2018-06-28T09:25:10.439Z,29.13
2018-06-28T09:26:10.361Z,29.36
2018-06-28T09:27:10.425Z,29.66
2018-06-28T09:28:10.388Z,29.98
2018-06-28T09:30:10.657Z,30.52
2018-06-28T09:31:10.356Z,30.13
2018-06-28T09:32:10.418Z,30.33
2018-06-28T09:33:10.357Z,30.43
2018-06-28T09:34:10.358Z,30.77
2018-06-28T09:35:10.431Z,30.60
2018-06-28T09:36:10.919Z,30.92
2018-06-28T09:37:10.589Z,31.08
2018-06-28T09:38:10.559Z,30.74
2018-06-28T09:39:10.387Z,30.83
2018-06-28T09:40:10.360Z,30.92
2018-06-28T09:41:10.367Z,30.43
2018-06-28T09:42:10.659Z,30.67
2018-06-28T09:43:10.375Z,30.56
2018-06-28T09:44:10.415Z,30.65
2018-06-28T09:45:10.360Z,30.92
2018-06-28T09:46:10.392Z,30.65
2018-06-28T09:47:16.693Z,30.77
2018-06-28T09:48:10.406Z,30.73
2018-06-28T09:49:10.679Z,30.39
2018-06-28T09:50:10.370Z,30.64
2018-06-28T09:51:10.497Z,31.01
2018-06-28T09:52:10.379Z,31.02
2018-06-28T09:53:10.453Z,31.23
2018-06-28T09:54:10.440Z,31.56
2018-06-28T09:55:10.864Z,31.75
2018-06-28T09:56:10.384Z,31.79
2018-06-28T09:57:14.943Z,31.86
2018-06-28T09:58:10.985Z,31.97
2018-06-28T10:00:10.469Z,31.67
2018-06-28T10:01:15.031Z,31.76
2018-06-28T10:02:11.185Z,31.20
2018-06-28T10:03:11.478Z,30.90
2018-06-28T10:04:10.837Z,30.75
2018-06-28T10:05:10.488Z,31.23
2018-06-28T10:06:10.432Z,31.61
2018-06-28T10:07:10.779Z,31.61
2018-06-28T10:08:10.575Z,31.20
2018-06-28T10:09:10.437Z,31.45
2018-06-28T10:10:10.384Z,31.68
2018-06-28T10:11:10.435Z,31.45
2018-06-28T10:12:10.640Z,31.44
2018-06-28T10:13:11.258Z,31.45
2018-06-28T10:14:10.387Z,31.70
2018-06-28T10:15:11.227Z,32.02
2018-06-28T10:16:10.564Z,32.23
2018-06-28T10:17:10.450Z,32.33
2018-06-28T10:18:14.432Z,32.09
2018-06-28T10:19:10.697Z,31.79
2018-06-28T10:21:11.348Z,31.75
2018-06-28T10:22:10.438Z,31.84
2018-06-28T10:23:10.420Z,31.79
2018-06-28T10:24:10.869Z,31.76
2018-06-28T10:25:10.876Z,32.06
2018-06-28T10:26:10.528Z,31.87
2018-06-28T10:27:10.423Z,31.99
2018-06-28T10:28:10.419Z,32.21
2018-06-28T10:29:10.425Z,32.32
2018-06-28T10:30:10.474Z,32.14
2018-06-28T10:31:10.740Z,32.17
2018-06-28T10:32:10.438Z,32.35
2018-06-28T10:33:10.436Z,31.95
2018-06-28T10:34:10.453Z,32.27
2018-06-28T10:35:10.457Z,32.50
2018-06-28T10:36:10.598Z,32.65
2018-06-28T10:37:10.770Z,32.64
2018-06-28T10:38:10.452Z,32.70
2018-06-28T10:39:10.633Z,32.54
2018-06-28T10:40:10.651Z,32.48
2018-06-28T10:41:10.729Z,32.17
2018-06-28T10:44:11.053Z,32.23
2018-06-28T10:45:10.833Z,32.57
2018-06-28T10:46:10.900Z,32.60
2018-06-28T10:47:10.477Z,32.83
2018-06-28T10:48:10.548Z,32.77
2018-06-28T10:49:10.528Z,32.95
2018-06-28T10:51:10.512Z,33.48
2018-06-28T10:52:10.730Z,33.14
2018-06-28T10:53:10.510Z,33.58
2018-06-28T10:54:10.552Z,33.84
2018-06-28T10:55:10.524Z,33.76
2018-06-28T10:56:10.813Z,33.55
2018-06-28T10:57:10.525Z,33.62
2018-06-28T10:58:10.520Z,33.57
2018-06-28T11:00:10.583Z,32.63
2018-06-28T11:01:10.532Z,32.57
2018-06-28T11:02:10.833Z,32.95
2018-06-28T11:03:10.543Z,32.98
2018-06-28T11:04:10.542Z,32.73
2018-06-28T11:05:10.551Z,32.58
2018-06-28T11:06:10.602Z,32.58
2018-06-28T11:07:10.551Z,32.63
2018-06-28T11:08:11.072Z,32.77
2018-06-28T11:09:10.572Z,32.98
2018-06-28T11:10:10.558Z,33.24
2018-06-28T11:11:10.567Z,33.62
2018-06-28T11:12:10.678Z,33.33
2018-06-28T11:13:10.845Z,33.64
2018-06-28T11:14:10.881Z,33.71
2018-06-28T11:15:10.721Z,33.82
2018-06-28T11:16:10.707Z,33.57
2018-06-28T11:17:13.655Z,33.13
2018-06-28T11:19:10.678Z,32.76
2018-06-28T11:20:11.096Z,32.61
2018-06-28T11:21:10.677Z,32.97
2018-06-28T11:22:11.421Z,32.95
2018-06-28T11:23:10.734Z,33.19
2018-06-28T11:24:10.744Z,33.13
2018-06-28T11:25:11.159Z,32.88
2018-06-28T11:26:11.128Z,32.65
2018-06-28T11:28:10.713Z,32.57
2018-06-28T11:29:10.728Z,32.63
2018-06-28T11:30:10.709Z,33.04
2018-06-28T11:31:10.646Z,33.01
2018-06-28T11:33:11.057Z,33.22
2018-06-28T11:34:10.830Z,33.49
2018-06-28T11:35:10.714Z,33.39
2018-06-28T11:36:10.702Z,33.55
2018-06-28T11:37:10.869Z,33.54
2018-06-28T11:38:10.683Z,33.27
2018-06-28T11:39:10.981Z,32.91
2018-06-28T11:40:10.731Z,33.35
2018-06-28T11:41:10.740Z,33.48
2018-06-28T11:42:10.691Z,33.42
2018-06-28T11:43:10.695Z,33.51
2018-06-28T11:44:10.699Z,33.19
2018-06-28T11:45:11.010Z,33.29
2018-06-28T11:46:10.732Z,33.51
2018-06-28T11:47:10.761Z,34.06
2018-06-28T11:48:10.737Z,33.86
2018-06-28T11:49:10.736Z,33.93
2018-06-28T11:50:10.734Z,33.91
2018-06-28T11:51:11.034Z,33.86
2018-06-28T11:52:10.786Z,33.98
2018-06-28T11:53:10.815Z,33.84
2018-06-28T11:54:11.952Z,33.60
2018-06-28T11:55:10.747Z,33.10
2018-06-28T11:56:10.965Z,33.22
2018-06-28T11:57:12.319Z,33.69
2018-06-28T11:58:10.831Z,33.81
2018-06-28T12:00:11.035Z,33.86
2018-06-28T12:01:10.789Z,33.85
2018-06-28T12:02:10.787Z,34.00
2018-06-28T12:03:11.197Z,34.29
2018-06-28T12:04:10.845Z,34.48
2018-06-28T12:05:10.819Z,34.67
2018-06-28T12:06:10.851Z,34.64
2018-06-28T12:07:10.843Z,34.82
2018-06-28T12:08:10.908Z,34.97
2018-06-28T12:09:11.156Z,34.28
2018-06-28T12:10:10.860Z,34.04
2018-06-28T12:11:10.838Z,34.08
2018-06-28T12:12:11.503Z,34.37
2018-06-28T12:14:10.951Z,33.57
2018-06-28T12:15:11.143Z,33.54
2018-06-28T12:16:10.840Z,33.54
2018-06-28T12:17:11.014Z,33.79
2018-06-28T12:18:10.967Z,33.62
2018-06-28T12:19:10.896Z,33.58
2018-06-28T12:20:10.845Z,33.27
2018-06-28T12:21:11.471Z,33.37
2018-06-28T12:23:10.868Z,32.39
2018-06-28T12:24:10.918Z,32.39
2018-06-28T12:25:10.894Z,32.58
2018-06-28T12:26:10.887Z,32.54
2018-06-28T12:27:11.441Z,32.73
2018-06-28T12:28:10.987Z,33.03
2018-06-28T12:29:10.951Z,32.79
2018-06-28T12:30:10.998Z,31.79
2018-06-28T12:32:11.054Z,32.63
2018-06-28T12:34:11.231Z,32.73
2018-06-28T12:36:10.976Z,32.95
2018-06-28T12:37:10.948Z,32.64
2018-06-28T12:38:10.957Z,33.29
2018-06-28T12:39:10.947Z,33.35
2018-06-28T12:40:11.233Z,33.17
2018-06-28T12:41:10.977Z,33.42
2018-06-28T12:42:11.003Z,33.35
2018-06-28T12:43:11.189Z,33.32
2018-06-28T12:44:10.970Z,33.69
2018-06-28T12:45:11.262Z,33.85
2018-06-28T12:46:11.641Z,33.91
2018-06-28T12:47:10.950Z,32.38
2018-06-28T12:48:11.004Z,32.45
2018-06-28T12:49:10.955Z,33.29
2018-06-28T12:50:10.970Z,33.54
2018-06-28T12:51:10.955Z,33.27
2018-06-28T12:52:11.270Z,33.57
2018-06-28T12:53:10.956Z,34.18
2018-06-28T12:54:11.074Z,34.56
2018-06-28T12:55:10.979Z,34.13
2018-06-28T12:56:11.144Z,33.27
2018-06-28T12:57:11.019Z,32.60
2018-06-28T12:58:11.285Z,33.32
2018-06-28T12:59:10.979Z,33.82
2018-06-28T13:00:11.033Z,33.03
2018-06-28T13:01:10.990Z,32.70
2018-06-28T13:02:11.055Z,32.95
2018-06-28T13:03:10.995Z,33.29
2018-06-28T13:04:11.394Z,33.48
2018-06-28T13:05:10.995Z,33.32
2018-06-28T13:06:11.427Z,33.29
2018-06-28T13:07:11.059Z,32.94
2018-06-28T13:08:11.011Z,32.61
2018-06-28T13:09:11.011Z,32.33
2018-06-28T13:10:11.339Z,32.85
2018-06-28T13:11:11.017Z,32.98
2018-06-28T13:12:11.224Z,32.50
2018-06-28T13:15:11.040Z,32.80
2018-06-28T13:16:11.361Z,32.28
2018-06-28T13:17:11.040Z,32.41
2018-06-28T13:18:11.095Z,32.20
2018-06-28T13:19:11.039Z,32.23
2018-06-28T13:20:11.127Z,32.06
2018-06-28T13:21:11.044Z,32.60
2018-06-28T13:22:11.352Z,32.80
2018-06-28T13:23:11.101Z,32.17
2018-06-28T13:24:11.120Z,32.57
2018-06-28T13:26:11.073Z,32.45
2018-06-28T13:27:11.070Z,32.17
2018-06-28T13:28:11.473Z,32.54
2018-06-28T13:30:11.158Z,32.20
2018-06-28T13:32:11.090Z,31.51
2018-06-28T13:33:11.124Z,31.54
2018-06-28T13:34:11.389Z,30.99
2018-06-28T13:35:11.145Z,31.48
2018-06-28T13:36:11.154Z,31.79
2018-06-28T13:37:11.160Z,32.09
2018-06-28T13:38:11.116Z,31.99
2018-06-28T13:39:11.182Z,31.76
2018-06-28T13:40:11.425Z,32.35
2018-06-28T13:41:11.392Z,32.58
2018-06-28T13:42:11.289Z,32.53